createdAt,value
2022-08-11T00:00:00.011Z,100452.50
2022-08-11T00:05:06.164Z,100449.97
2022-08-11T00:10:12.374Z,100456.06
2022-08-11T00:15:14.609Z,100451.88
2022-08-11T00:20:17.462Z,100455.31
2022-08-11T00:25:21.608Z,100452.88
2022-08-11T00:30:23.728Z,100456.41
2022-08-11T00:35:54.809Z,100459.91
2022-08-11T00:41:19.290Z,100455.09
2022-08-11T00:46:33.660Z,100458.66
2022-08-11T00:52:03.887Z,100450.25
2022-08-11T00:57:36.927Z,100457.16
2022-08-11T01:02:39.868Z,100449.69
2022-08-11T01:08:15.614Z,100452.38
2022-08-11T01:13:48.457Z,100450.72
2022-08-11T01:19:17.838Z,100450.75
2022-08-11T01:25:08.231Z,100447.44
2022-08-11T01:30:09.806Z,100447.59
2022-08-11T01:35:31.169Z,100454.41
2022-08-11T01:41:00.556Z,100445.06
2022-08-11T01:46:17.384Z,100449.38
2022-08-11T01:51:51.278Z,100437.66
2022-08-11T01:57:01.902Z,100441.09
2022-08-11T02:02:47.661Z,100447.06
2022-08-11T02:08:18.660Z,100435.28
2022-08-11T02:13:36.491Z,100436.16
2022-08-11T02:19:00.879Z,100426.16
2022-08-11T02:24:14.930Z,100423.72
2022-08-11T02:29:39.428Z,100434.00
2022-08-11T02:35:00.661Z,100439.97
2022-08-11T02:40:22.657Z,100437.50
2022-08-11T02:45:54.782Z,100435.03
2022-08-11T02:51:30.278Z,100436.72
2022-08-11T02:56:38.460Z,100438.47
2022-08-11T03:01:53.210Z,100430.06
2022-08-11T03:07:28.275Z,100438.53
2022-08-11T03:13:00.753Z,100434.34
2022-08-11T03:18:36.556Z,100437.75
2022-08-11T03:23:59.260Z,100437.00
2022-08-11T03:29:24.934Z,100440.38
2022-08-11T03:34:30.164Z,100441.25
2022-08-11T03:39:37.879Z,100436.19
2022-08-11T03:45:23.963Z,100431.94
2022-08-11T03:50:43.785Z,100426.84
2022-08-11T03:56:13.626Z,100436.88
2022-08-11T04:01:32.421Z,100429.06
2022-08-11T04:07:01.550Z,100436.34
2022-08-11T04:12:37.024Z,100442.66
2022-08-11T04:18:16.240Z,100440.28
2022-08-11T04:24:34.893Z,100429.38
2022-08-11T04:29:14.496Z,100427.81
2022-08-11T04:34:28.273Z,100431.19
2022-08-11T04:40:02.437Z,100446.03
2022-08-11T04:45:26.046Z,100438.66
2022-08-11T04:51:28.096Z,100432.06
2022-08-11T04:56:52.260Z,100433.84
2022-08-11T05:02:17.389Z,100446.38
2022-08-11T05:07:31.595Z,100448.34
2022-08-11T05:12:49.161Z,100451.16
2022-08-11T05:18:15.344Z,100454.88
2022-08-11T05:23:39.765Z,100446.97
2022-08-11T05:29:19.341Z,100452.38
2022-08-11T05:34:54.139Z,100453.66
2022-08-11T05:40:23.925Z,100447.19
2022-08-11T05:46:02.348Z,100445.88
2022-08-11T05:51:30.259Z,100443.22
2022-08-11T05:56:34.903Z,100443.88
2022-08-11T06:01:36.870Z,100433.72
2022-08-11T06:06:45.541Z,100441.13
2022-08-11T06:11:48.918Z,100430.84
2022-08-11T06:16:56.111Z,100442.38
2022-08-11T06:21:59.779Z,100434.59
2022-08-11T06:27:18.650Z,100433.22
2022-08-11T06:32:25.396Z,100432.88
2022-08-11T06:37:43.500Z,100436.56
2022-08-11T06:42:58.664Z,100433.88
2022-08-11T06:48:01.932Z,100440.84
2022-08-11T06:53:10.628Z,100438.97
2022-08-11T06:58:37.497Z,100428.75
2022-08-11T07:03:45.533Z,100423.47
2022-08-11T07:09:18.005Z,100428.63
2022-08-11T07:14:43.547Z,100422.13
2022-08-11T07:20:10.218Z,100417.47
2022-08-11T07:25:34.308Z,100403.69
2022-08-11T07:30:41.585Z,100408.44
2022-08-11T07:35:48.526Z,100399.59
2022-08-11T07:40:51.469Z,100398.16
2022-08-11T07:46:11.871Z,100387.66
2022-08-11T07:51:37.982Z,100387.81
2022-08-11T07:56:55.234Z,100383.19
2022-08-11T08:02:20.565Z,100373.78
2022-08-11T08:07:41.789Z,100377.34
2022-08-11T08:13:02.834Z,100373.88
2022-08-11T08:18:09.669Z,100368.78
2022-08-11T08:23:34.482Z,100367.56
2022-08-11T08:28:36.661Z,100364.56
2022-08-11T08:33:41.782Z,100358.66
2022-08-11T08:38:54.039Z,100357.56
2022-08-11T08:44:34.729Z,100353.63
2022-08-11T08:49:33.300Z,100353.88
2022-08-11T08:54:38.134Z,100338.69
2022-08-11T08:59:49.264Z,100329.78
2022-08-11T09:04:51.864Z,100337.44
2022-08-11T09:09:58.172Z,100328.13
2022-08-11T09:15:05.998Z,100319.13
2022-08-11T09:20:17.463Z,100317.38
2022-08-11T09:25:40.147Z,100315.31
2022-08-11T09:30:44.465Z,100307.66
2022-08-11T09:35:48.825Z,100300.28
2022-08-11T09:40:52.788Z,100295.00
2022-08-11T09:45:59.694Z,100279.81
2022-08-11T09:51:02.691Z,100284.41
2022-08-11T09:56:25.717Z,100281.47
2022-08-11T10:01:32.055Z,100273.91
2022-08-11T10:06:55.800Z,100277.13
2022-08-11T10:11:59.849Z,100274.34
2022-08-11T10:17:06.222Z,100277.00
2022-08-11T10:22:27.917Z,100277.59
2022-08-11T10:28:16.714Z,100271.41
2022-08-11T10:33:36.575Z,100254.88
2022-08-11T10:38:39.128Z,100244.59
2022-08-11T10:44:02.786Z,100229.81
2022-08-11T10:49:03.871Z,100237.50
2022-08-11T10:54:24.522Z,100226.22
2022-08-11T10:59:29.982Z,100228.13
2022-08-11T11:04:52.299Z,100224.84
2022-08-11T11:09:58.546Z,100224.56
2022-08-11T11:15:22.194Z,100213.31
2022-08-11T11:20:34.531Z,100216.72
2022-08-11T11:26:10.399Z,100215.34
2022-08-11T11:31:42.832Z,100210.19
2022-08-11T11:36:48.882Z,100208.28
2022-08-11T11:41:53.354Z,100205.06
2022-08-11T11:46:56.714Z,100193.53
2022-08-11T11:52:00.717Z,100194.31
2022-08-11T11:57:23.065Z,100190.78
2022-08-11T12:02:24.829Z,100174.53
2022-08-11T12:07:45.502Z,100181.84
2022-08-11T12:13:20.527Z,100177.03
2022-08-11T12:18:22.426Z,100174.34
2022-08-11T12:23:42.853Z,100162.56
2022-08-11T12:28:45.650Z,100163.75
2022-08-11T12:33:47.418Z,100149.50
2022-08-11T12:38:51.772Z,100153.41
2022-08-11T12:44:12.282Z,100148.88
2022-08-11T12:49:36.477Z,100129.38
2022-08-11T12:54:43.948Z,100126.97
2022-08-11T13:00:05.298Z,100118.13
2022-08-11T13:05:09.052Z,100111.53
2022-08-11T13:10:16.988Z,100110.84
2022-08-11T13:15:24.064Z,100110.66
2022-08-11T13:20:26.825Z,100103.78
2022-08-11T13:25:31.713Z,100106.56
2022-08-11T13:30:52.150Z,100097.09
2022-08-11T13:35:55.858Z,100092.38
2022-08-11T13:40:58.278Z,100087.53
2022-08-11T13:46:18.528Z,100090.31
2022-08-11T13:51:36.257Z,100089.56
2022-08-11T13:56:42.331Z,100082.91
2022-08-11T14:02:20.888Z,100085.13
2022-08-11T14:07:14.709Z,100085.91
2022-08-11T14:12:43.203Z,100078.72
2022-08-11T14:17:49.298Z,100076.91
2022-08-11T14:22:52.381Z,100070.78
2022-08-11T14:28:30.645Z,100087.09
2022-08-11T14:33:20.271Z,100080.88
2022-08-11T14:38:23.330Z,100076.28
2022-08-11T14:44:12.387Z,100071.75
2022-08-11T14:49:06.836Z,100079.94
2022-08-11T14:54:28.813Z,100090.31
2022-08-11T14:59:30.864Z,100083.00
2022-08-11T15:04:35.983Z,100082.84
2022-08-11T15:10:09.862Z,100074.84
2022-08-11T15:15:25.590Z,100068.25
2022-08-11T15:20:47.067Z,100083.75
2022-08-11T15:25:55.431Z,100066.91
2022-08-11T15:31:17.922Z,100059.00
2022-08-11T15:36:39.734Z,100058.09
2022-08-11T15:42:09.392Z,100055.50
2022-08-11T15:47:14.329Z,100054.63
2022-08-11T15:52:23.311Z,100050.38
2022-08-11T15:57:44.086Z,100048.88
2022-08-11T16:02:54.929Z,100054.66
2022-08-11T16:07:57.232Z,100052.25
2022-08-11T16:13:06.085Z,100050.22
2022-08-11T16:18:09.154Z,100054.16
2022-08-11T16:23:14.312Z,100046.72
2022-08-11T16:28:18.846Z,100042.34
2022-08-11T16:33:22.678Z,100044.72
2022-08-11T16:38:43.825Z,100046.84
2022-08-11T16:44:06.664Z,100049.19
2022-08-11T16:49:24.972Z,100049.56
2022-08-11T16:54:28.004Z,100050.47
2022-08-11T16:59:32.133Z,100055.09
2022-08-11T17:05:13.326Z,100047.06
2022-08-11T17:10:52.732Z,100042.06
2022-08-11T17:16:07.145Z,100040.78
2022-08-11T17:21:14.314Z,100036.00
2022-08-11T17:26:51.839Z,100030.59
2022-08-11T17:32:13.978Z,100033.28
2022-08-11T17:37:15.811Z,100033.78
2022-08-11T17:42:36.945Z,100037.34
2022-08-11T17:47:58.685Z,100042.84
2022-08-11T17:53:20.179Z,100044.16
2022-08-11T17:58:41.857Z,100046.25
2022-08-11T18:03:53.032Z,100046.53
2022-08-11T18:09:18.774Z,100057.19
2022-08-11T18:14:42.430Z,100055.94
2022-08-11T18:20:03.150Z,100071.63
2022-08-11T18:25:29.376Z,100062.94
2022-08-11T18:31:03.885Z,100069.25
2022-08-11T18:36:29.258Z,100079.00
2022-08-11T18:41:53.929Z,100075.38
2022-08-11T18:47:15.723Z,100082.91
2022-08-11T18:52:38.466Z,100076.84
2022-08-11T18:58:00.701Z,100082.72
2022-08-11T19:03:23.696Z,100088.22
2022-08-11T19:08:50.149Z,100088.44
2022-08-11T19:14:12.703Z,100087.91
2022-08-11T19:19:34.461Z,100084.19
2022-08-11T19:24:57.617Z,100098.22
2022-08-11T19:30:19.609Z,100094.47
2022-08-11T19:35:40.311Z,100088.22
2022-08-11T19:41:01.333Z,100086.06
2022-08-11T19:46:23.670Z,100098.28
2022-08-11T19:51:45.468Z,100104.41
2022-08-11T19:57:07.856Z,100105.19
2022-08-11T20:02:28.472Z,100099.53
2022-08-11T20:07:50.258Z,100102.03
2022-08-11T20:13:12.705Z,100100.97
2022-08-11T20:18:43.095Z,100105.69
2022-08-11T20:24:06.405Z,100098.28
2022-08-11T20:29:28.069Z,100106.13
2022-08-11T20:34:50.687Z,100102.59
2022-08-11T20:40:14.857Z,100116.38
2022-08-11T20:45:36.077Z,100116.56
2022-08-11T20:51:16.649Z,100115.53
2022-08-11T20:56:39.369Z,100124.56
2022-08-11T21:02:03.065Z,100125.28
2022-08-11T21:07:28.528Z,100131.28
2022-08-11T21:12:50.795Z,100142.47
2022-08-11T21:18:28.516Z,100158.75
2022-08-11T21:23:52.446Z,100158.16
2022-08-11T21:29:16.805Z,100154.06
2022-08-11T21:34:40.052Z,100171.25
2022-08-11T21:40:01.883Z,100163.84
2022-08-11T21:45:25.418Z,100165.63
2022-08-11T21:50:45.675Z,100162.28
2022-08-11T21:56:07.882Z,100170.03
2022-08-11T22:01:29.180Z,100170.13
2022-08-11T22:06:56.586Z,100161.72
2022-08-11T22:12:34.410Z,100169.63
2022-08-11T22:17:58.006Z,100163.81
2022-08-11T22:23:20.255Z,100169.22
2022-08-11T22:28:42.249Z,100170.00
2022-08-11T22:34:03.424Z,100160.63
2022-08-11T22:39:27.253Z,100175.97
2022-08-11T22:44:47.614Z,100172.50
2022-08-11T22:50:14.142Z,100184.56
2022-08-11T22:55:34.809Z,100177.13
2022-08-11T23:00:55.766Z,100191.84
2022-08-11T23:06:17.645Z,100192.06
2022-08-11T23:12:05.931Z,100182.81
2022-08-11T23:17:18.789Z,100167.56
2022-08-11T23:22:49.259Z,100170.22
2022-08-11T23:28:11.769Z,100161.03
2022-08-11T23:33:35.779Z,100163.69
2022-08-11T23:38:55.961Z,100168.09
2022-08-11T23:44:17.481Z,100164.00
2022-08-11T23:49:38.218Z,100164.13
2022-08-11T23:54:59.161Z,100166.84
